Time;durP1;ratioP1;P1;durP2;ratioP2;P2;SDS_P1;SDS_P2;PMS_P1;PMS_P2;Temp;Humidity;BMP_temperature;BMP_pressure;BME280_temperature;BME280_humidity;BME280_pressure;Samples;Min_cycle;Max_cycle;Signal;HPM_P1;HPM_P2
2022/01/05 00:02:09;;;;;;;4.07;1.30;;;6.20;76.70;;;;;;4999916;28;20061;-80
2022/01/05 00:04:35;;;;;;;3.72;1.45;;;6.10;76.60;;;;;;4998258;28;20454;-80
2022/01/05 00:07:04;;;;;;;3.80;1.40;;;6.20;76.70;;;;;;4997210;28;20369;-80
2022/01/05 00:09:30;;;;;;;2.85;1.15;;;6.10;76.70;;;;;;4991784;28;20018;-81
2022/01/05 00:11:56;;;;;;;4.63;1.50;;;6.10;76.50;;;;;;5001146;28;20026;-82
2022/01/05 00:14:21;;;;;;;2.50;1.20;;;6.10;76.60;;;;;;4995549;28;20396;-81
2022/01/05 00:16:47;;;;;;;3.58;1.60;;;6.00;76.60;;;;;;4990821;28;20069;-81
2022/01/05 00:19:12;;;;;;;3.35;1.13;;;6.00;76.70;;;;;;4985295;28;20036;-81
2022/01/05 00:21:40;;;;;;;2.53;1.05;;;6.00;76.70;;;;;;5000462;28;20126;-90
2022/01/05 00:24:06;;;;;;;4.15;1.40;;;6.10;77.00;;;;;;5003320;28;20323;-90
2022/01/05 00:26:32;;;;;;;3.70;1.30;;;6.30;77.30;;;;;;4994674;28;20046;-83
2022/01/05 00:28:57;;;;;;;5.82;1.50;;;6.60;77.20;;;;;;4984835;28;20103;-85
2022/01/05 00:31:23;;;;;;;4.50;1.40;;;6.80;77.00;;;;;;4989973;28;20022;-86
2022/01/05 00:33:50;;;;;;;5.25;1.50;;;7.00;76.60;;;;;;4991555;28;20080;-87
2022/01/05 00:36:16;;;;;;;4.65;1.60;;;7.10;76.20;;;;;;4993554;28;20401;-87
2022/01/05 00:38:42;;;;;;;3.75;1.40;;;7.10;75.70;;;;;;4990550;28;20473;-88
2022/01/05 00:41:07;;;;;;;6.15;1.48;;;7.20;75.60;;;;;;4991897;28;20037;-87
2022/01/05 00:43:33;;;;;;;5.57;1.80;;;7.30;75.60;;;;;;4985317;28;20073;-87
2022/01/05 00:45:58;;;;;;;3.15;1.45;;;7.40;75.40;;;;;;4991784;28;20037;-87
2022/01/05 00:48:24;;;;;;;3.58;1.25;;;7.40;74.90;;;;;;4981970;28;20028;-88
2022/01/05 00:50:49;;;;;;;4.38;1.48;;;7.50;75.00;;;;;;5000946;28;20053;-88
2022/01/05 00:53:15;;;;;;;3.60;1.25;;;7.50;74.70;;;;;;5004461;28;20026;-88
2022/01/05 00:55:41;;;;;;;5.25;1.75;;;7.50;74.40;;;;;;5002926;28;20022;-87
2022/01/05 00:58:06;;;;;;;4.85;1.40;;;7.50;74.50;;;;;;5003292;28;20014;-89
2022/01/05 01:00:32;;;;;;;5.28;1.40;;;7.50;74.40;;;;;;5009672;28;20061;-89
2022/01/05 01:02:57;;;;;;;6.05;1.83;;;7.60;74.30;;;;;;4992632;28;20384;-88
2022/01/05 01:05:23;;;;;;;5.15;1.48;;;7.50;73.90;;;;;;4999344;28;20034;-88
2022/01/05 01:07:49;;;;;;;4.00;1.35;;;7.40;73.70;;;;;;5011946;28;20036;-88
2022/01/05 01:10:15;;;;;;;7.00;1.60;;;7.40;73.70;;;;;;5004984;28;20061;-88
2022/01/05 01:12:41;;;;;;;4.30;1.23;;;7.30;73.80;;;;;;5005141;28;20106;-88
2022/01/05 01:15:09;;;;;;;4.80;1.42;;;7.30;73.80;;;;;;5004561;28;20477;-89
2022/01/05 01:17:35;;;;;;;5.35;1.40;;;7.20;73.60;;;;;;4987848;28;20115;-88
2022/01/05 01:20:01;;;;;;;5.10;1.65;;;7.30;73.90;;;;;;4995881;28;20530;-88
2022/01/05 01:22:29;;;;;;;4.78;1.40;;;7.30;73.70;;;;;;5003686;28;20076;-86
2022/01/05 01:24:55;;;;;;;5.93;1.25;;;7.40;73.60;;;;;;4988829;28;20014;-88
2022/01/05 01:27:20;;;;;;;5.47;1.42;;;7.30;73.20;;;;;;5004153;28;20084;-88
2022/01/05 01:29:46;;;;;;;6.25;1.60;;;7.30;73.10;;;;;;5002531;28;20153;-89
2022/01/05 01:32:12;;;;;;;5.15;1.50;;;7.20;72.60;;;;;;5004644;28;20038;-89
2022/01/05 01:34:37;;;;;;;3.88;1.27;;;7.20;72.90;;;;;;5005741;28;20356;-89
2022/01/05 01:37:03;;;;;;;4.45;1.35;;;7.20;72.90;;;;;;5003562;28;20018;-89
2022/01/05 01:39:28;;;;;;;4.78;1.70;;;7.20;72.80;;;;;;4996724;28;20026;-90
2022/01/05 01:41:54;;;;;;;3.75;1.20;;;7.20;72.90;;;;;;5001336;28;20022;-89
2022/01/05 01:44:20;;;;;;;4.15;1.38;;;7.20;72.90;;;;;;4993030;28;20018;-89
2022/01/05 01:46:46;;;;;;;4.70;1.45;;;7.20;73.00;;;;;;5003421;28;20038;-89
2022/01/05 01:49:11;;;;;;;4.20;1.30;;;7.20;72.70;;;;;;5009834;28;20033;-89
2022/01/05 01:51:37;;;;;;;3.25;1.20;;;7.20;73.20;;;;;;5002090;28;20026;-88
2022/01/05 01:54:05;;;;;;;4.50;1.40;;;7.10;72.40;;;;;;5011845;28;20044;-88
2022/01/05 01:56:33;;;;;;;4.28;1.50;;;7.10;72.70;;;;;;4997394;28;20050;-89
2022/01/05 01:59:00;;;;;;;3.15;1.20;;;7.10;72.70;;;;;;5009447;28;20030;-89
2022/01/05 02:01:25;;;;;;;5.10;1.27;;;7.10;72.70;;;;;;5001237;28;20033;-89
2022/01/05 02:03:51;;;;;;;3.55;1.35;;;7.10;72.60;;;;;;5005003;28;20018;-89
2022/01/05 02:06:16;;;;;;;5.00;1.70;;;7.00;72.50;;;;;;5002104;28;20030;-89
2022/01/05 02:08:42;;;;;;;4.38;1.50;;;7.10;72.40;;;;;;5010400;28;20018;-89
2022/01/05 02:11:09;;;;;;;4.82;1.55;;;7.00;72.40;;;;;;5003434;28;20048;-89
2022/01/05 02:13:35;;;;;;;5.05;1.70;;;7.00;72.40;;;;;;5009659;28;20026;-88
2022/01/05 02:16:01;;;;;;;6.47;1.70;;;7.00;72.50;;;;;;5005248;28;20320;-88
2022/01/05 02:21:05;;;;;;;5.47;1.50;;;6.90;72.50;;;;;;4989764;28;20052;-84
2022/01/05 02:23:30;;;;;;;6.82;1.95;;;6.90;72.50;;;;;;4994454;28;20029;-85
2022/01/05 02:25:56;;;;;;;7.63;1.85;;;6.90;72.30;;;;;;4994819;28;20026;-85
2022/01/05 02:28:21;;;;;;;5.75;1.90;;;6.80;72.30;;;;;;5000561;28;20014;-86
2022/01/05 02:30:51;;;;;;;5.63;1.60;;;6.80;72.30;;;;;;5001466;28;20038;-85
2022/01/05 02:33:17;;;;;;;5.90;1.85;;;6.80;72.20;;;;;;5001628;28;20072;-86
2022/01/05 02:35:42;;;;;;;6.60;1.75;;;6.80;72.30;;;;;;5004284;28;20026;-86
2022/01/05 02:38:08;;;;;;;5.05;1.77;;;6.70;72.10;;;;;;5002150;28;20033;-85
2022/01/05 02:40:33;;;;;;;5.63;1.48;;;6.70;71.90;;;;;;5004493;28;20023;-85
2022/01/05 02:42:59;;;;;;;6.85;2.03;;;6.60;71.90;;;;;;5002519;28;20030;-85
2022/01/05 02:45:24;;;;;;;4.85;1.33;;;6.50;71.80;;;;;;4997103;28;20022;-85
2022/01/05 02:47:50;;;;;;;8.43;2.00;;;6.60;72.10;;;;;;5000526;28;20032;-87
2022/01/05 02:50:16;;;;;;;4.43;1.67;;;6.50;71.80;;;;;;5006469;28;20049;-87
2022/01/05 02:52:42;;;;;;;5.50;1.48;;;6.50;71.90;;;;;;5005159;28;20032;-86
2022/01/05 02:55:09;;;;;;;5.25;2.00;;;6.50;72.00;;;;;;5001740;28;20464;-86
2022/01/05 02:57:35;;;;;;;6.25;1.83;;;6.50;71.70;;;;;;4998621;28;20413;-86
2022/01/05 03:00:02;;;;;;;6.78;1.90;;;6.40;71.50;;;;;;5010165;28;20080;-86
2022/01/05 03:02:28;;;;;;;5.55;1.98;;;6.40;71.10;;;;;;4999329;28;20038;-86
2022/01/05 03:04:53;;;;;;;6.22;1.73;;;6.30;71.30;;;;;;5011112;28;20376;-86
2022/01/05 03:07:19;;;;;;;5.47;1.80;;;6.30;71.30;;;;;;5000964;28;20060;-86
2022/01/05 03:09:45;;;;;;;5.97;2.08;;;6.30;71.10;;;;;;5003179;28;20031;-86
2022/01/05 03:12:11;;;;;;;6.47;1.70;;;6.20;71.10;;;;;;5001644;28;20034;-87
2022/01/05 03:14:36;;;;;;;6.65;1.92;;;6.30;71.30;;;;;;5002592;28;20520;-86
2022/01/05 03:17:02;;;;;;;6.97;1.55;;;6.20;71.10;;;;;;4987929;28;20031;-88
2022/01/05 03:19:28;;;;;;;5.13;1.67;;;6.20;71.30;;;;;;4989476;28;20108;-87
2022/01/05 03:21:53;;;;;;;5.40;1.60;;;6.30;71.00;;;;;;4993386;28;20022;-88
2022/01/05 03:24:19;;;;;;;5.75;1.63;;;6.30;71.00;;;;;;5002271;28;20516;-88
2022/01/05 03:26:44;;;;;;;5.30;1.50;;;6.40;71.10;;;;;;4999239;28;20036;-88
2022/01/05 03:29:10;;;;;;;5.22;1.52;;;6.40;70.80;;;;;;5004039;28;20022;-87
2022/01/05 03:31:35;;;;;;;8.27;1.90;;;6.50;70.90;;;;;;5001196;28;20095;-87
2022/01/05 03:34:01;;;;;;;6.60;1.98;;;6.50;70.60;;;;;;4997494;28;20282;-86
2022/01/05 03:36:26;;;;;;;4.88;1.75;;;6.50;70.10;;;;;;4990558;28;20358;-86
2022/01/05 03:38:52;;;;;;;5.45;1.50;;;6.40;69.90;;;;;;5001104;28;20042;-85
2022/01/05 03:41:17;;;;;;;8.23;1.90;;;6.30;69.90;;;;;;5003190;28;20034;-84
2022/01/05 03:43:43;;;;;;;6.05;1.95;;;6.20;69.70;;;;;;4999985;28;20026;-84
2022/01/05 03:46:09;;;;;;;6.57;1.88;;;6.20;70.80;;;;;;5006094;28;20053;-87
2022/01/05 03:48:34;;;;;;;7.53;2.13;;;6.20;70.30;;;;;;5000698;28;20022;-87
2022/01/05 03:51:00;;;;;;;5.78;2.05;;;6.10;70.20;;;;;;5008099;28;20069;-87
2022/01/05 03:53:25;;;;;;;4.95;1.60;;;6.20;70.50;;;;;;5003013;28;20126;-87
2022/01/05 03:55:51;;;;;;;10.10;2.67;;;6.20;70.50;;;;;;5008790;28;20392;-88
2022/01/05 03:58:16;;;;;;;6.53;1.75;;;6.20;70.30;;;;;;4997474;28;20018;-88
2022/01/05 04:00:45;;;;;;;7.20;2.03;;;6.20;70.40;;;;;;5012264;28;20507;-89
2022/01/05 04:03:10;;;;;;;7.88;2.22;;;6.20;70.10;;;;;;5007245;28;20080;-86
2022/01/05 04:05:36;;;;;;;6.38;2.20;;;6.10;70.10;;;;;;5015731;28;20038;-86
2022/01/05 04:08:02;;;;;;;5.72;1.85;;;6.10;70.10;;;;;;5004359;28;20018;-86
2022/01/05 04:10:28;;;;;;;7.78;1.80;;;6.00;70.40;;;;;;5001371;28;20097;-85
2022/01/05 04:12:53;;;;;;;6.53;2.08;;;6.00;70.50;;;;;;5006363;28;20025;-85
2022/01/05 04:15:19;;;;;;;6.25;2.03;;;6.00;70.50;;;;;;5008202;28;20038;-85
2022/01/05 04:17:45;;;;;;;5.40;1.60;;;5.90;70.40;;;;;;5000640;28;20058;-85
2022/01/05 04:20:12;;;;;;;6.78;1.88;;;6.00;70.80;;;;;;4994021;28;20022;-86
2022/01/05 04:22:38;;;;;;;10.50;2.35;;;6.00;70.80;;;;;;5003936;28;20105;-87
2022/01/05 04:25:04;;;;;;;7.30;2.08;;;5.90;70.30;;;;;;5006351;28;20025;-87
2022/01/05 04:27:30;;;;;;;5.80;1.77;;;5.90;70.50;;;;;;5009373;28;20030;-87
2022/01/05 04:29:55;;;;;;;5.00;1.83;;;5.90;70.90;;;;;;5005151;28;20053;-89
2022/01/05 04:32:21;;;;;;;5.82;1.70;;;5.90;70.90;;;;;;5012081;28;20026;-86
2022/01/05 04:34:47;;;;;;;8.52;2.17;;;6.00;71.00;;;;;;5005212;28;20026;-88
2022/01/05 04:37:12;;;;;;;5.57;1.70;;;5.90;70.80;;;;;;5008043;28;20034;-88
2022/01/05 04:39:38;;;;;;;8.25;2.35;;;5.80;70.90;;;;;;5003697;28;20025;-87
2022/01/05 04:42:04;;;;;;;6.65;1.90;;;5.80;71.00;;;;;;5008979;28;20030;-87
2022/01/05 04:44:30;;;;;;;6.80;1.80;;;5.90;71.30;;;;;;5001393;28;20073;-87
2022/01/05 04:46:55;;;;;;;7.22;2.20;;;5.90;71.30;;;;;;5003153;28;20113;-87
2022/01/05 04:49:21;;;;;;;4.97;1.70;;;6.00;71.40;;;;;;5000989;28;20102;-87
2022/01/05 04:51:47;;;;;;;7.30;2.03;;;6.10;71.50;;;;;;5002242;28;20034;-86
2022/01/05 04:54:12;;;;;;;6.32;1.80;;;6.10;71.20;;;;;;5001391;28;20468;-87
2022/01/05 04:56:38;;;;;;;4.22;1.67;;;6.00;71.20;;;;;;5010251;28;20036;-89
2022/01/05 04:59:03;;;;;;;8.25;2.28;;;6.10;71.40;;;;;;5001690;28;20068;-89
2022/01/05 05:01:29;;;;;;;6.53;2.15;;;6.10;71.30;;;;;;5005504;28;20030;-88
2022/01/05 05:03:55;;;;;;;8.43;2.22;;;6.10;71.30;;;;;;4997732;28;20473;-89
2022/01/05 05:06:22;;;;;;;7.55;2.17;;;6.00;70.80;;;;;;5006586;28;20030;-88
2022/01/05 05:08:48;;;;;;;7.05;1.83;;;5.90;71.20;;;;;;5005144;28;20431;-88
2022/01/05 05:11:14;;;;;;;7.55;2.10;;;5.90;71.50;;;;;;5005532;28;20034;-88
2022/01/05 05:13:40;;;;;;;10.65;2.10;;;5.90;71.50;;;;;;5005591;28;20018;-88
2022/01/05 05:16:05;;;;;;;11.10;2.65;;;6.00;71.60;;;;;;5001859;28;20026;-88
2022/01/05 05:18:31;;;;;;;6.80;1.88;;;6.00;71.50;;;;;;4984530;28;20065;-87
2022/01/05 05:20:56;;;;;;;6.82;2.42;;;5.90;71.50;;;;;;4996032;28;20425;-87
2022/01/05 05:23:22;;;;;;;8.45;2.08;;;5.90;71.80;;;;;;5004512;28;20041;-88
2022/01/05 05:25:47;;;;;;;5.80;2.33;;;5.90;72.00;;;;;;5003967;28;20022;-86
2022/01/05 05:28:14;;;;;;;10.57;2.15;;;5.90;72.00;;;;;;5009640;28;20523;-86
2022/01/05 05:30:39;;;;;;;9.15;2.22;;;5.90;71.90;;;;;;4995696;28;20041;-85
2022/01/05 05:33:05;;;;;;;8.32;2.25;;;6.00;72.10;;;;;;5003550;28;20345;-85
2022/01/05 05:35:31;;;;;;;8.32;2.10;;;6.00;72.10;;;;;;5004176;28;20053;-87
2022/01/05 05:37:57;;;;;;;9.13;2.10;;;5.90;72.00;;;;;;5011590;28;20049;-89
2022/01/05 05:40:23;;;;;;;7.10;1.95;;;6.00;72.40;;;;;;5004292;28;20084;-89
2022/01/05 05:42:50;;;;;;;9.07;3.00;;;6.10;72.40;;;;;;5011755;28;20061;-89
2022/01/05 05:45:16;;;;;;;7.88;2.15;;;6.10;72.20;;;;;;5004356;28;20061;-90
2022/01/05 05:47:41;;;;;;;7.80;2.28;;;6.10;72.00;;;;;;5011208;28;20045;-89
2022/01/05 05:50:08;;;;;;;8.45;2.30;;;6.10;72.20;;;;;;4999762;28;20034;-85
2022/01/05 05:52:33;;;;;;;7.55;2.50;;;6.10;72.30;;;;;;4999530;28;20547;-85
2022/01/05 05:54:59;;;;;;;5.82;2.20;;;6.00;72.20;;;;;;5000621;28;20026;-86
2022/01/05 05:57:25;;;;;;;12.05;2.60;;;6.00;72.30;;;;;;5004595;28;20053;-86
2022/01/05 05:59:50;;;;;;;7.78;1.95;;;6.00;72.50;;;;;;5000149;28;20031;-86
2022/01/05 06:02:16;;;;;;;8.73;2.00;;;6.10;72.70;;;;;;4999330;28;20033;-86
2022/01/05 06:04:42;;;;;;;10.07;2.67;;;6.10;72.70;;;;;;5002130;28;20032;-85
2022/01/05 06:07:07;;;;;;;8.35;2.00;;;6.10;72.60;;;;;;5007443;28;20359;-86
2022/01/05 06:09:33;;;;;;;8.98;2.30;;;6.10;72.70;;;;;;5012621;28;20030;-86
2022/01/05 06:11:58;;;;;;;11.68;2.47;;;6.10;72.80;;;;;;5004734;28;20497;-86
2022/01/05 06:14:24;;;;;;;5.88;2.50;;;6.00;72.90;;;;;;4999065;28;20061;-88
2022/01/05 06:16:49;;;;;;;7.88;2.00;;;6.00;73.00;;;;;;5009523;28;20037;-86
2022/01/05 06:19:15;;;;;;;9.38;2.22;;;6.10;73.20;;;;;;4981909;28;20027;-85
2022/01/05 06:21:40;;;;;;;6.32;2.00;;;6.10;73.30;;;;;;4992300;28;20034;-86
2022/01/05 06:24:06;;;;;;;7.63;2.22;;;6.10;73.50;;;;;;4999672;28;20019;-88
2022/01/05 06:26:32;;;;;;;10.93;2.90;;;6.10;73.50;;;;;;4998972;28;20089;-87
2022/01/05 06:28:57;;;;;;;8.18;2.20;;;6.10;73.40;;;;;;5003339;28;20069;-86
2022/01/05 06:31:23;;;;;;;8.68;2.03;;;6.10;73.60;;;;;;4999062;28;20137;-86
2022/01/05 06:33:48;;;;;;;9.20;2.35;;;6.20;73.80;;;;;;5004982;28;20225;-86
2022/01/05 06:36:14;;;;;;;8.60;1.90;;;6.20;73.70;;;;;;5005181;28;20026;-86
2022/01/05 06:38:39;;;;;;;9.60;2.30;;;6.20;73.70;;;;;;5005932;28;20028;-86
2022/01/05 06:41:05;;;;;;;9.27;2.30;;;6.30;73.70;;;;;;4999236;28;20026;-84
2022/01/05 06:43:31;;;;;;;7.70;1.90;;;6.30;73.70;;;;;;5002259;28;20058;-85
2022/01/05 06:45:58;;;;;;;7.63;2.00;;;6.20;73.50;;;;;;4997368;28;20377;-87
2022/01/05 06:48:23;;;;;;;7.35;2.03;;;6.20;73.80;;;;;;5001208;28;20018;-87
2022/01/05 06:50:49;;;;;;;6.00;1.90;;;6.30;74.00;;;;;;5001192;28;20132;-88
2022/01/05 06:53:15;;;;;;;9.93;2.40;;;6.40;73.90;;;;;;5009360;28;20460;-87
2022/01/05 06:55:41;;;;;;;10.73;2.40;;;6.30;73.70;;;;;;5000335;28;20113;-86
2022/01/05 06:58:06;;;;;;;6.07;1.95;;;6.20;73.50;;;;;;5004557;28;20663;-87
2022/01/05 07:00:32;;;;;;;9.93;2.45;;;6.20;73.80;;;;;;4999516;28;20030;-86
2022/01/05 07:02:58;;;;;;;8.20;2.20;;;6.20;73.70;;;;;;5007427;28;20033;-86
2022/01/05 07:05:24;;;;;;;11.60;2.70;;;6.10;73.70;;;;;;4998466;28;20027;-89
2022/01/05 07:07:49;;;;;;;9.73;2.25;;;6.10;73.90;;;;;;5001294;28;20377;-90
2022/01/05 07:10:15;;;;;;;10.27;2.42;;;6.10;74.10;;;;;;5001214;28;20571;-90
2022/01/05 07:12:41;;;;;;;9.48;2.42;;;6.00;74.20;;;;;;5000301;28;20359;-86
2022/01/05 07:15:07;;;;;;;8.70;2.30;;;6.00;74.40;;;;;;4998605;28;20064;-86
2022/01/05 07:17:33;;;;;;;7.80;2.20;;;6.00;74.70;;;;;;5006370;28;20128;-85
2022/01/05 07:19:59;;;;;;;10.57;2.38;;;6.00;74.80;;;;;;4983821;28;20500;-85
2022/01/05 07:22:25;;;;;;;8.70;1.85;;;5.90;74.80;;;;;;4988771;28;20037;-85
2022/01/05 07:24:51;;;;;;;9.27;2.10;;;6.00;75.00;;;;;;4998955;28;20105;-87
2022/01/05 07:27:16;;;;;;;7.82;2.28;;;6.10;75.00;;;;;;4996851;28;20446;-87
2022/01/05 07:29:42;;;;;;;7.43;2.42;;;6.10;74.90;;;;;;4999978;28;20041;-86
2022/01/05 07:32:08;;;;;;;7.05;2.05;;;6.10;74.80;;;;;;4989002;28;20022;-89
2022/01/05 07:34:33;;;;;;;9.10;2.45;;;6.20;75.00;;;;;;4987672;28;20026;-89
2022/01/05 07:36:59;;;;;;;10.85;2.70;;;6.20;74.80;;;;;;4993436;28;20028;-86
2022/01/05 07:39:24;;;;;;;6.10;2.00;;;6.10;74.60;;;;;;4986682;28;20407;-82
2022/01/05 07:41:50;;;;;;;7.07;1.92;;;6.10;74.70;;;;;;4981532;28;20424;-81
2022/01/05 07:44:15;;;;;;;9.93;2.22;;;6.10;74.80;;;;;;4985021;28;20034;-81
2022/01/05 07:46:41;;;;;;;7.97;1.90;;;6.20;74.70;;;;;;4985113;28;20231;-81
2022/01/05 07:49:07;;;;;;;9.38;2.42;;;6.20;74.80;;;;;;4983393;28;20030;-82
2022/01/05 07:51:33;;;;;;;11.23;2.88;;;6.30;74.80;;;;;;4986110;28;20032;-79
2022/01/05 07:53:59;;;;;;;9.98;2.30;;;6.20;74.60;;;;;;4985634;28;20053;-80
2022/01/05 07:56:26;;;;;;;7.65;2.33;;;6.20;74.70;;;;;;4983301;28;20552;-80
2022/01/05 07:58:52;;;;;;;8.73;2.38;;;6.20;74.90;;;;;;4984681;28;20305;-80
2022/01/05 08:01:18;;;;;;;11.73;2.35;;;6.20;75.00;;;;;;4986336;28;20110;-83
2022/01/05 08:03:46;;;;;;;9.90;2.78;;;6.10;75.10;;;;;;4985817;28;20486;-81
2022/01/05 08:06:11;;;;;;;8.38;2.10;;;6.10;75.30;;;;;;4983259;28;20113;-81
2022/01/05 08:08:37;;;;;;;11.07;2.78;;;6.10;75.50;;;;;;4988031;28;20106;-82
2022/01/05 08:11:02;;;;;;;13.75;2.90;;;6.10;75.60;;;;;;4981812;28;20041;-82
2022/01/05 08:13:28;;;;;;;12.15;2.72;;;6.10;75.80;;;;;;4984977;28;20065;-82
2022/01/05 08:15:54;;;;;;;9.52;2.50;;;6.10;76.20;;;;;;4982823;28;20125;-81
2022/01/05 08:18:20;;;;;;;9.90;2.70;;;6.10;76.50;;;;;;4983262;28;20069;-79
2022/01/05 08:20:46;;;;;;;11.13;2.83;;;6.10;76.70;;;;;;4983725;28;20029;-80
2022/01/05 08:23:17;;;;;;;12.57;2.90;;;6.10;77.00;;;;;;4982218;28;20486;-82
2022/01/05 08:25:43;;;;;;;13.88;2.97;;;6.10;77.20;;;;;;4984561;28;20113;-80
2022/01/05 08:28:11;;;;;;;10.18;2.88;;;6.10;77.60;;;;;;4983229;28;20114;-83
2022/01/05 08:30:37;;;;;;;12.43;2.63;;;6.10;77.90;;;;;;4984890;28;20125;-84
2022/01/05 08:33:03;;;;;;;11.60;2.85;;;6.00;78.20;;;;;;4980289;28;20045;-87
2022/01/05 08:35:29;;;;;;;13.32;2.70;;;6.00;78.50;;;;;;4984434;28;20456;-82
2022/01/05 08:37:54;;;;;;;13.48;3.13;;;6.00;78.70;;;;;;4987057;28;20065;-84
2022/01/05 08:40:23;;;;;;;14.18;3.13;;;6.00;79.00;;;;;;4987381;28;20023;-87
2022/01/05 08:42:49;;;;;;;13.80;3.08;;;6.00;79.30;;;;;;4988451;28;20019;-81
2022/01/05 08:45:16;;;;;;;15.90;3.50;;;6.00;79.40;;;;;;4986657;28;20019;-85
2022/01/05 08:47:47;;;;;;;9.75;2.60;;;6.00;79.60;;;;;;4982808;28;20037;-88
2022/01/05 08:50:14;;;;;;;7.50;2.72;;;6.00;79.80;;;;;;5005829;28;20037;-84
2022/01/05 08:52:39;;;;;;;13.07;3.65;;;6.00;80.00;;;;;;4994932;28;20046;-84
2022/01/05 08:55:06;;;;;;;12.40;2.95;;;6.00;80.20;;;;;;4992594;28;20103;-84
2022/01/05 08:57:31;;;;;;;9.45;2.83;;;6.00;80.30;;;;;;4990065;28;20029;-90
2022/01/05 08:59:57;;;;;;;12.23;2.78;;;6.00;80.70;;;;;;4996179;28;20014;-91
2022/01/05 09:02:23;;;;;;;11.13;2.80;;;6.00;80.90;;;;;;4992012;28;20449;-87
2022/01/05 09:04:51;;;;;;;9.85;2.47;;;6.00;81.00;;;;;;4990908;28;20026;-84
2022/01/05 09:07:18;;;;;;;9.32;2.17;;;6.00;81.00;;;;;;4991156;28;20493;-84
2022/01/05 09:09:44;;;;;;;12.75;2.72;;;6.00;81.10;;;;;;4990761;28;20500;-84
2022/01/05 09:12:10;;;;;;;10.93;2.50;;;6.00;81.00;;;;;;4994039;28;20246;-89
2022/01/05 09:14:36;;;;;;;11.68;3.03;;;6.00;81.10;;;;;;4986898;28;20019;-88
2022/01/05 09:17:01;;;;;;;13.02;2.92;;;6.00;81.30;;;;;;4991013;28;20400;-84
2022/01/05 09:19:28;;;;;;;7.78;2.30;;;5.90;81.40;;;;;;4986489;28;20042;-88
2022/01/05 09:21:54;;;;;;;9.77;2.30;;;6.00;81.50;;;;;;4988099;28;20033;-83
2022/01/05 09:24:20;;;;;;;10.38;3.10;;;6.00;81.60;;;;;;4981029;28;20034;-83
2022/01/05 09:26:45;;;;;;;9.70;2.50;;;5.90;81.70;;;;;;4998032;28;20026;-85
2022/01/05 09:29:11;;;;;;;12.60;2.85;;;5.90;82.50;;;;;;4998541;28;20450;-87
2022/01/05 09:31:37;;;;;;;12.63;2.78;;;5.80;82.10;;;;;;4998506;28;20038;-84
2022/01/05 09:34:03;;;;;;;11.40;2.97;;;5.80;82.20;;;;;;5001742;28;20053;-88
2022/01/05 09:36:46;;;;;;;10.05;2.88;;;5.80;82.50;;;;;;4999954;28;20037;-82
2022/01/05 09:41:56;;;;;;;8.82;2.67;;;5.70;83.00;;;;;;4987725;28;20116;-87
2022/01/05 09:44:29;;;;;;;10.63;2.33;;;5.70;83.40;;;;;;4986275;28;20062;-92
2022/01/05 09:46:55;;;;;;;8.63;2.25;;;5.70;83.40;;;;;;4983599;28;20018;-86
2022/01/05 09:49:32;;;;;;;9.13;2.20;;;5.70;83.60;;;;;;4984639;28;20477;-85
2022/01/05 09:52:03;;;;;;;8.80;2.35;;;5.70;83.70;;;;;;4983234;28;20034;-81
2022/01/05 09:54:29;;;;;;;9.00;2.30;;;5.80;84.00;;;;;;5001393;28;20026;-84
2022/01/05 09:56:56;;;;;;;8.82;2.50;;;5.80;84.10;;;;;;4997568;28;20110;-85
2022/01/05 09:59:22;;;;;;;10.15;2.60;;;5.70;84.10;;;;;;4982239;28;20492;-82
2022/01/05 10:01:48;;;;;;;9.60;2.50;;;5.80;84.10;;;;;;4989325;28;20037;-83
2022/01/05 10:04:14;;;;;;;6.13;1.90;;;5.80;84.20;;;;;;4994305;28;20054;-83
2022/01/05 10:06:40;;;;;;;10.52;2.50;;;5.80;84.30;;;;;;4992310;28;20026;-88
2022/01/05 10:09:06;;;;;;;12.55;2.50;;;5.80;84.40;;;;;;4992693;28;20026;-87
2022/01/05 10:11:32;;;;;;;10.00;2.42;;;5.80;84.60;;;;;;4986062;28;20083;-84
2022/01/05 10:13:57;;;;;;;10.30;2.50;;;5.80;84.80;;;;;;4987225;28;20461;-80
2022/01/05 10:16:24;;;;;;;11.27;3.00;;;5.80;84.80;;;;;;4987328;28;20030;-82
2022/01/05 10:18:54;;;;;;;7.55;2.10;;;5.80;84.90;;;;;;4986787;28;20044;-85
2022/01/05 10:21:20;;;;;;;7.47;2.10;;;5.90;85.10;;;;;;4983857;28;20026;-81
2022/01/05 10:23:50;;;;;;;9.20;2.70;;;5.90;85.00;;;;;;4987480;28;20053;-82
2022/01/05 10:26:27;;;;;;;11.75;2.80;;;5.90;85.10;;;;;;4985758;28;20057;-81
2022/01/05 10:28:55;;;;;;;13.60;2.60;;;5.90;85.30;;;;;;4976516;28;20030;-82
2022/01/05 10:31:29;;;;;;;13.27;2.70;;;6.00;85.30;;;;;;4986325;28;20125;-82
2022/01/05 10:33:55;;;;;;;10.30;2.13;;;6.00;85.60;;;;;;5000676;28;20030;-81
2022/01/05 10:36:21;;;;;;;8.43;2.25;;;6.00;85.70;;;;;;4981350;28;20026;-81
2022/01/05 10:38:52;;;;;;;10.35;2.30;;;6.10;85.80;;;;;;4981713;28;20049;-82
2022/01/05 10:41:20;;;;;;;11.43;2.45;;;6.10;85.70;;;;;;4982542;28;20081;-80
2022/01/05 10:44:09;;;;;;;12.27;2.85;;;6.10;85.70;;;;;;4976134;28;20059;-80
2022/01/05 10:46:36;;;;;;;13.13;2.63;;;6.20;85.80;;;;;;4976590;28;20052;-83
2022/01/05 10:49:04;;;;;;;10.32;2.50;;;6.20;85.80;;;;;;4979404;28;20026;-82
2022/01/05 10:51:31;;;;;;;11.63;3.30;;;6.20;85.80;;;;;;4984344;28;20126;-84
2022/01/05 10:54:17;;;;;;;6.30;1.95;;;6.20;85.90;;;;;;4981147;28;20042;-84
2022/01/05 10:56:43;;;;;;;11.23;2.25;;;6.20;86.10;;;;;;4994266;28;20034;-83
2022/01/05 10:59:10;;;;;;;9.27;2.55;;;6.30;86.10;;;;;;4983347;28;20034;-83
2022/01/05 11:01:35;;;;;;;10.60;2.83;;;6.30;86.00;;;;;;4991368;28;20027;-83
2022/01/05 11:04:15;;;;;;;9.90;2.63;;;6.30;86.10;;;;;;4992448;28;20026;-83
2022/01/05 11:07:03;;;;;;;10.65;2.67;;;6.40;86.10;;;;;;4999636;28;20024;-82
2022/01/05 11:09:30;;;;;;;11.20;2.85;;;6.40;86.40;;;;;;5003933;28;20030;-84
2022/01/05 11:11:56;;;;;;;12.65;3.13;;;6.40;86.30;;;;;;4974383;28;20022;-85
2022/01/05 11:14:34;;;;;;;15.02;3.05;;;6.40;86.50;;;;;;4982466;28;20037;-85
2022/01/05 11:17:04;;;;;;;12.68;2.67;;;6.40;86.70;;;;;;4981956;28;20130;-84
2022/01/05 11:19:36;;;;;;;13.80;3.13;;;6.40;86.80;;;;;;4985685;28;20039;-85
2022/01/05 11:22:17;;;;;;;12.73;2.80;;;6.50;87.00;;;;;;4987327;28;20508;-85
2022/01/05 11:24:47;;;;;;;13.20;3.10;;;6.50;87.10;;;;;;4998391;28;20145;-85
2022/01/05 11:27:25;;;;;;;13.35;2.97;;;6.50;87.10;;;;;;4988635;28;20034;-85
2022/01/05 11:29:51;;;;;;;9.50;2.15;;;6.60;87.00;;;;;;4993698;28;20046;-85
2022/01/05 11:32:25;;;;;;;8.05;1.85;;;6.60;86.90;;;;;;4995345;28;20031;-85
2022/01/05 11:34:53;;;;;;;9.85;2.40;;;6.70;86.90;;;;;;4996789;28;20069;-85
2022/01/05 11:37:19;;;;;;;10.85;2.38;;;6.70;86.80;;;;;;4987912;28;20026;-86
2022/01/05 11:39:49;;;;;;;7.47;2.25;;;6.70;86.80;;;;;;4992833;28;20114;-87
2022/01/05 11:42:19;;;;;;;7.90;1.90;;;6.70;86.70;;;;;;4986657;28;20049;-85
2022/01/05 11:44:52;;;;;;;10.45;2.55;;;6.70;86.60;;;;;;4998018;28;20087;-87
2022/01/05 11:47:23;;;;;;;;;;;6.80;86.60;;;;;;4985908;28;20102;-87
2022/01/05 11:49:49;;;;;;;10.15;2.20;;;6.80;86.50;;;;;;4991219;28;19918;-87
2022/01/05 11:52:15;;;;;;;8.63;2.10;;;6.80;86.60;;;;;;4991789;28;20129;-88
2022/01/05 11:55:01;;;;;;;10.65;1.98;;;6.80;86.70;;;;;;4989938;28;20105;-89
2022/01/05 11:57:27;;;;;;;5.88;1.58;;;6.80;86.60;;;;;;4995585;28;20026;-90
2022/01/05 12:00:17;;;;;;;8.45;2.55;;;6.90;86.50;;;;;;4994578;28;20022;-89
2022/01/05 12:02:43;;;;;;;8.95;2.53;;;6.80;86.40;;;;;;4996352;28;20034;-89
2022/01/05 12:05:09;;;;;;;9.02;2.95;;;6.80;86.30;;;;;;4990823;28;20037;-89
2022/01/05 12:07:47;;;;;;;8.75;2.80;;;6.90;86.30;;;;;;4997261;28;20233;-88
2022/01/05 12:10:24;;;;;;;6.65;2.03;;;6.90;86.20;;;;;;4996276;28;20435;-89
2022/01/05 12:13:06;;;;;;;6.03;1.95;;;6.90;86.20;;;;;;4996560;28;20091;-89
2022/01/05 12:15:41;;;;;;;6.88;1.90;;;6.90;86.10;;;;;;4990730;28;20477;-90
2022/01/05 12:18:08;;;;;;;10.43;2.35;;;6.90;86.10;;;;;;4991157;28;20050;-88
2022/01/05 12:20:35;;;;;;;9.20;2.35;;;7.00;86.20;;;;;;4990713;28;20089;-89
2022/01/05 12:23:26;;;;;;;6.93;1.90;;;7.00;86.20;;;;;;4994661;28;20058;-88
2022/01/05 12:26:01;;;;;;;12.20;2.28;;;7.00;86.20;;;;;;4992629;28;20014;-89
2022/01/05 12:28:32;;;;;;;8.57;1.83;;;7.00;86.10;;;;;;4988657;28;20035;-89
2022/01/05 12:30:58;;;;;;;9.52;2.03;;;7.10;86.20;;;;;;4989312;28;20093;-89
2022/01/05 12:33:25;;;;;;;8.60;2.08;;;7.10;86.20;;;;;;4999387;28;20014;-89
2022/01/05 12:35:52;;;;;;;10.38;2.10;;;7.10;86.30;;;;;;4993469;28;20499;-87
2022/01/05 12:38:47;;;;;;;10.25;2.45;;;7.10;86.30;;;;;;5012762;28;20303;-89
2022/01/05 12:41:26;;;;;;;12.82;2.42;;;7.10;86.50;;;;;;4985040;28;20041;-86
2022/01/05 12:43:53;;;;;;;15.32;3.42;;;7.20;86.50;;;;;;4986668;28;20032;-86
2022/01/05 12:46:39;;;;;;;11.85;2.75;;;7.20;86.50;;;;;;4989918;28;20031;-87
2022/01/05 12:49:09;;;;;;;11.93;2.30;;;7.20;86.70;;;;;;4992124;28;20546;-88
2022/01/05 12:51:50;;;;;;;10.70;2.53;;;7.10;86.70;;;;;;4985931;28;20066;-87
2022/01/05 12:54:18;;;;;;;9.13;2.25;;;7.20;86.80;;;;;;4988610;28;20099;-87
2022/01/05 12:57:02;;;;;;;10.90;2.25;;;7.20;86.70;;;;;;4991156;28;20038;-88
2022/01/05 12:59:32;;;;;;;10.65;2.45;;;7.30;86.70;;;;;;4995825;28;20507;-88
2022/01/05 13:02:00;;;;;;;10.18;2.35;;;7.20;86.60;;;;;;4984566;28;20133;-88